createdAt,value
2018-05-09T00:01:30.758Z,15.58
2018-05-09T00:03:58.401Z,15.53
2018-05-09T00:06:25.880Z,15.46
2018-05-09T00:08:53.684Z,15.44
2018-05-09T00:11:21.629Z,15.43
2018-05-09T00:13:49.391Z,15.40
2018-05-09T00:16:16.900Z,15.38
2018-05-09T00:18:45.053Z,15.36
2018-05-09T00:21:12.660Z,15.33
2018-05-09T00:23:40.288Z,15.31
2018-05-09T00:26:07.817Z,15.28
2018-05-09T00:28:35.351Z,15.23
2018-05-09T00:31:03.217Z,15.20
2018-05-09T00:33:30.722Z,15.20
2018-05-09T00:35:58.278Z,15.18
2018-05-09T00:38:25.794Z,15.17
2018-05-09T00:40:53.288Z,15.14
2018-05-09T00:43:20.790Z,15.11
2018-05-09T00:45:48.282Z,15.07
2018-05-09T00:48:15.782Z,15.01
2018-05-09T00:50:43.263Z,14.95
2018-05-09T00:53:10.814Z,14.89
2018-05-09T00:55:38.302Z,14.86
2018-05-09T00:58:05.807Z,14.83
2018-05-09T01:00:33.333Z,14.79
2018-05-09T01:03:00.855Z,14.79
2018-05-09T01:05:28.369Z,14.80
2018-05-09T01:21:30.168Z,14.60
2018-05-09T01:23:57.802Z,14.58
2018-05-09T01:26:25.417Z,14.59
2018-05-09T01:28:56.291Z,14.60
2018-05-09T01:31:23.851Z,14.59
2018-05-09T01:33:51.503Z,14.55
2018-05-09T01:36:19.032Z,14.56
2018-05-09T01:38:46.593Z,14.57
2018-05-09T01:41:14.255Z,14.57
2018-05-09T01:43:41.789Z,14.56
2018-05-09T01:46:09.737Z,14.58
2018-05-09T01:48:37.317Z,14.53
2018-05-09T01:51:04.876Z,14.44
2018-05-09T01:53:32.409Z,14.36
2018-05-09T01:56:03.582Z,14.28
2018-05-09T01:58:31.129Z,14.22
2018-05-09T02:00:58.634Z,14.14
2018-05-09T02:03:26.206Z,14.07
2018-05-09T02:05:55.494Z,14.02
2018-05-09T02:08:23.049Z,13.95
2018-05-09T02:10:50.589Z,13.93
2018-05-09T02:13:18.101Z,13.92
2018-05-09T02:15:45.624Z,13.91
2018-05-09T02:18:13.245Z,13.91
2018-05-09T02:20:40.805Z,13.88
2018-05-09T02:23:08.332Z,13.85
2018-05-09T02:25:35.943Z,13.81
2018-05-09T02:28:03.551Z,13.76
2018-05-09T02:30:31.120Z,13.71
2018-05-09T02:32:58.760Z,13.69
2018-05-09T02:35:27.518Z,13.68
2018-05-09T02:37:56.925Z,13.66
2018-05-09T02:40:24.466Z,13.66
2018-05-09T02:42:52.016Z,13.66
2018-05-09T02:45:19.612Z,13.64
2018-05-09T02:47:47.175Z,13.65
2018-05-09T02:50:14.695Z,13.63
2018-05-09T02:52:42.229Z,13.56
2018-05-09T02:55:09.777Z,13.55
2018-05-09T02:57:37.299Z,13.51
2018-05-09T03:00:05.613Z,13.48
2018-05-09T03:02:33.197Z,13.44
2018-05-09T03:05:00.742Z,13.42
2018-05-09T03:07:28.358Z,13.41
2018-05-09T03:09:57.688Z,13.37
2018-05-09T03:12:25.380Z,13.33
2018-05-09T03:14:53.004Z,13.30
2018-05-09T03:17:20.569Z,13.28
2018-05-09T03:19:48.188Z,13.27
2018-05-09T03:22:15.775Z,13.25
2018-05-09T03:24:44.219Z,13.23
2018-05-09T03:27:11.773Z,13.21
2018-05-09T03:29:39.337Z,13.20
2018-05-09T03:32:07.899Z,13.20
2018-05-09T03:34:35.445Z,13.22
2018-05-09T03:37:02.957Z,13.28
2018-05-09T03:39:30.547Z,13.32
2018-05-09T03:41:58.079Z,13.32
2018-05-09T03:44:25.599Z,13.29
2018-05-09T03:46:53.952Z,13.24
2018-05-09T03:49:21.562Z,13.19
2018-05-09T03:51:51.257Z,13.18
2018-05-09T03:54:18.830Z,13.16
2018-05-09T03:56:46.366Z,13.15
2018-05-09T03:59:14.000Z,13.17
2018-05-09T04:01:53.559Z,13.17
2018-05-09T04:04:33.070Z,13.16
2018-05-09T04:07:12.614Z,13.17
2018-05-09T04:09:51.171Z,13.16
2018-05-09T04:12:18.748Z,13.15
2018-05-09T04:14:46.324Z,13.18
2018-05-09T04:17:13.974Z,13.21
2018-05-09T04:19:41.586Z,13.24
2018-05-09T04:22:09.130Z,13.29
2018-05-09T04:24:36.699Z,13.33
2018-05-09T04:27:05.025Z,13.38
2018-05-09T04:29:32.739Z,13.41
2018-05-09T04:32:00.403Z,13.46
2018-05-09T04:34:28.691Z,13.50
2018-05-09T04:36:56.263Z,13.53
2018-05-09T04:39:23.810Z,13.58
2018-05-09T04:41:51.401Z,13.60
2018-05-09T04:44:19.023Z,13.62
2018-05-09T04:46:46.618Z,13.63
2018-05-09T04:49:16.881Z,13.71
2018-05-09T04:51:45.741Z,13.78
2018-05-09T04:54:13.300Z,13.85
2018-05-09T04:56:40.866Z,13.90
2018-05-09T04:59:08.401Z,13.93
2018-05-09T05:01:35.981Z,13.96
2018-05-09T05:04:03.625Z,14.01
2018-05-09T05:06:31.224Z,14.07
2018-05-09T05:08:58.887Z,14.14
2018-05-09T05:11:26.437Z,14.18
2018-05-09T05:13:54.008Z,14.24
2018-05-09T05:16:21.553Z,14.30
2018-05-09T05:18:49.969Z,14.35
2018-05-09T05:21:17.705Z,14.39
2018-05-09T05:23:45.233Z,14.42
2018-05-09T05:26:12.876Z,14.47
2018-05-09T05:28:40.414Z,14.54
2018-05-09T05:31:08.694Z,14.62
2018-05-09T05:33:37.860Z,14.67
2018-05-09T05:36:05.791Z,14.71
2018-05-09T05:38:33.311Z,14.75
2018-05-09T05:41:01.011Z,14.76
2018-05-09T05:43:28.574Z,14.76
2018-05-09T05:45:57.694Z,14.81
2018-05-09T05:48:25.787Z,14.87
2018-05-09T05:50:53.816Z,14.96
2018-05-09T05:53:21.820Z,15.01
2018-05-09T05:55:49.406Z,15.08
2018-05-09T05:58:17.124Z,15.16
2018-05-09T06:00:45.233Z,15.22
2018-05-09T06:03:13.428Z,15.28
2018-05-09T06:05:40.975Z,15.30
2018-05-09T06:08:08.657Z,15.39
2018-05-09T06:10:38.988Z,15.47
2018-05-09T06:13:07.042Z,15.55
2018-05-09T06:15:34.598Z,15.62
2018-05-09T06:18:02.681Z,15.69
2018-05-09T06:20:32.228Z,15.74
2018-05-09T06:23:00.162Z,15.80
2018-05-09T06:25:27.637Z,15.86
2018-05-09T06:27:55.307Z,16.00
2018-05-09T06:30:23.253Z,16.07
2018-05-09T06:32:50.797Z,16.14
2018-05-09T06:35:20.199Z,16.12
2018-05-09T06:37:47.768Z,16.18
2018-05-09T06:40:17.931Z,16.25
2018-05-09T06:42:45.578Z,16.30
2018-05-09T06:45:14.866Z,16.36
2018-05-09T06:47:44.094Z,16.41
2018-05-09T06:50:11.700Z,16.45
2018-05-09T06:52:39.223Z,16.57
2018-05-09T06:55:06.752Z,16.68
2018-05-09T06:57:34.325Z,16.77
2018-05-09T07:00:01.874Z,16.87
2018-05-09T07:02:29.447Z,16.96
2018-05-09T07:04:58.030Z,17.04
2018-05-09T07:07:25.643Z,16.99
2018-05-09T07:09:53.921Z,17.04
2018-05-09T07:12:23.249Z,17.11
2018-05-09T07:14:50.961Z,17.17
2018-05-09T07:17:18.486Z,17.22
2018-05-09T07:19:46.151Z,17.27
2018-05-09T07:22:13.841Z,17.34
2018-05-09T07:24:41.353Z,17.35
2018-05-09T07:27:08.914Z,17.37
2018-05-09T07:29:36.491Z,17.37
2018-05-09T07:32:04.030Z,17.40
2018-05-09T07:34:31.648Z,17.50
2018-05-09T07:36:59.201Z,17.61
2018-05-09T07:39:28.015Z,17.63
2018-05-09T07:41:55.617Z,17.71
2018-05-09T07:44:23.158Z,17.80
2018-05-09T07:46:50.825Z,17.90
2018-05-09T07:49:18.597Z,17.87
2018-05-09T07:51:46.173Z,17.88
2018-05-09T07:54:13.780Z,17.88
2018-05-09T07:56:42.316Z,17.89
2018-05-09T07:59:09.961Z,17.99
2018-05-09T08:01:37.465Z,18.13
2018-05-09T08:04:06.903Z,18.25
2018-05-09T08:06:34.425Z,18.26
2018-05-09T08:09:01.982Z,18.21
2018-05-09T08:11:29.536Z,18.26
2018-05-09T08:13:57.108Z,18.37
2018-05-09T08:16:24.767Z,18.53
2018-05-09T08:18:52.428Z,18.77
2018-05-09T08:21:20.088Z,18.88
2018-05-09T08:23:47.764Z,19.04
2018-05-09T08:26:15.285Z,19.17
2018-05-09T08:28:42.959Z,19.17
2018-05-09T08:31:13.184Z,19.15
2018-05-09T08:33:40.765Z,19.07
2018-05-09T08:36:08.322Z,19.01
2018-05-09T08:38:35.939Z,19.05
2018-05-09T08:41:04.082Z,19.08
2018-05-09T08:43:31.819Z,19.13
2018-05-09T08:45:59.787Z,19.29
2018-05-09T08:48:27.620Z,19.36
2018-05-09T08:50:55.252Z,19.40
2018-05-09T08:53:25.373Z,19.50
2018-05-09T08:55:53.664Z,19.60
2018-05-09T08:58:21.307Z,19.54
2018-05-09T09:00:51.660Z,19.60
2018-05-09T09:03:19.218Z,19.59
2018-05-09T09:18:46.950Z,19.93
2018-05-09T09:21:18.121Z,19.89
2018-05-09T09:23:45.724Z,19.97
2018-05-09T09:26:14.272Z,19.99
2018-05-09T09:28:42.048Z,20.05
2018-05-09T09:31:09.680Z,20.01
2018-05-09T09:33:37.266Z,19.94
2018-05-09T09:36:04.808Z,20.10
2018-05-09T09:38:32.584Z,20.21
2018-05-09T09:41:01.037Z,20.38
2018-05-09T09:43:28.540Z,20.46
2018-05-09T09:45:56.158Z,20.44
2018-05-09T09:48:23.696Z,20.46
2018-05-09T09:50:51.356Z,20.59
2018-05-09T09:53:19.023Z,20.71
2018-05-09T09:55:46.589Z,20.77
2018-05-09T09:58:14.245Z,20.88
2018-05-09T10:00:41.813Z,21.03
2018-05-09T10:03:09.362Z,21.09
2018-05-09T10:05:37.035Z,21.13
2018-05-09T10:08:04.624Z,20.95
2018-05-09T10:10:32.178Z,20.99
2018-05-09T10:12:59.752Z,21.08
2018-05-09T10:15:27.408Z,21.24
2018-05-09T10:17:54.970Z,21.39
2018-05-09T10:20:23.672Z,21.43
2018-05-09T10:22:51.664Z,21.51
2018-05-09T10:25:19.300Z,21.53
2018-05-09T10:27:47.001Z,21.51
2018-05-09T10:30:14.628Z,21.57
2018-05-09T10:32:42.144Z,21.64
2018-05-09T10:35:09.727Z,21.78
2018-05-09T10:37:37.564Z,21.92
2018-05-09T10:40:05.182Z,22.03
2018-05-09T10:42:32.768Z,22.13
2018-05-09T10:45:00.387Z,22.18
2018-05-09T10:47:27.996Z,22.14
2018-05-09T10:49:57.258Z,22.12
2018-05-09T10:52:24.839Z,22.21
2018-05-09T10:54:52.511Z,22.06
2018-05-09T10:57:20.265Z,22.01
2018-05-09T10:59:47.801Z,21.97
2018-05-09T11:02:15.391Z,22.02
2018-05-09T11:04:42.981Z,22.18
2018-05-09T11:07:10.546Z,22.25
2018-05-09T11:09:38.123Z,22.13
2018-05-09T11:12:05.748Z,22.07
2018-05-09T11:14:33.963Z,22.14
2018-05-09T11:17:01.907Z,22.38
2018-05-09T11:19:29.537Z,22.51
2018-05-09T11:21:57.014Z,22.55
2018-05-09T11:24:24.566Z,22.60
2018-05-09T11:26:52.036Z,22.66
2018-05-09T11:29:19.527Z,22.73
2018-05-09T11:31:47.048Z,22.78
2018-05-09T11:34:14.540Z,22.75
2018-05-09T11:36:42.019Z,22.86
2018-05-09T11:39:09.483Z,22.86
2018-05-09T11:41:36.990Z,22.95
2018-05-09T11:44:04.464Z,23.03
2018-05-09T11:46:31.975Z,22.98
2018-05-09T11:48:59.471Z,22.76
2018-05-09T11:51:27.003Z,22.69
2018-05-09T11:53:54.513Z,22.65
2018-05-09T11:56:21.983Z,22.93
2018-05-09T11:58:49.509Z,23.06
2018-05-09T12:01:17.000Z,23.18
2018-05-09T12:03:44.496Z,23.20
2018-05-09T12:06:11.960Z,23.05
2018-05-09T12:08:39.480Z,23.08
2018-05-09T12:11:06.949Z,22.92
2018-05-09T12:13:34.470Z,22.97
2018-05-09T12:16:01.944Z,23.04
2018-05-09T12:18:29.429Z,22.94
2018-05-09T12:20:56.928Z,23.01
2018-05-09T12:23:24.425Z,22.99
2018-05-09T12:25:51.938Z,23.07
2018-05-09T12:28:19.420Z,23.20
2018-05-09T12:30:46.935Z,23.11
2018-05-09T12:33:14.423Z,23.19
2018-05-09T12:35:41.903Z,23.49
2018-05-09T12:38:09.372Z,23.71
2018-05-09T12:40:36.868Z,23.83
2018-05-09T12:43:04.353Z,23.86
2018-05-09T12:45:31.963Z,23.89
2018-05-09T12:47:59.463Z,23.84
2018-05-09T12:50:26.924Z,24.03
2018-05-09T12:52:54.416Z,24.20
2018-05-09T12:55:21.906Z,24.35
2018-05-09T12:57:49.600Z,24.42
2018-05-09T13:00:18.736Z,24.49
2018-05-09T13:05:24.470Z,24.51
2018-05-09T13:07:51.942Z,24.65
2018-05-09T13:13:11.910Z,24.77
2018-05-09T13:15:39.372Z,24.89
2018-05-09T13:18:14.138Z,25.05
2018-05-09T13:20:41.649Z,24.93
2018-05-09T13:23:09.128Z,25.09
2018-05-09T13:25:36.665Z,25.26
2018-05-09T13:28:14.407Z,25.23
2018-05-09T13:33:34.721Z,25.25
2018-05-09T13:36:12.161Z,25.37
2018-05-09T13:38:39.652Z,25.67
2018-05-09T13:41:07.265Z,25.90
2018-05-09T13:43:34.719Z,25.76
2018-05-09T13:46:12.003Z,25.72
2018-05-09T13:48:39.471Z,25.88
2018-05-09T13:51:06.996Z,26.02
2018-05-09T13:53:34.484Z,26.04
2018-05-09T13:56:16.865Z,26.11
2018-05-09T13:58:52.547Z,26.28
2018-05-09T14:03:57.542Z,26.69
2018-05-09T14:06:25.095Z,27.22
2018-05-09T14:08:52.584Z,27.33
2018-05-09T14:11:20.076Z,27.71
2018-05-09T14:13:47.564Z,27.88
2018-05-09T14:16:21.231Z,27.67
2018-05-09T14:21:25.692Z,28.27
2018-05-09T14:23:53.278Z,28.74
2018-05-09T14:26:20.752Z,29.38
2018-05-09T14:31:25.207Z,29.22
2018-05-09T14:33:52.743Z,29.30
2018-05-09T14:36:20.245Z,29.58
2018-05-09T14:41:24.719Z,29.84
2018-05-09T14:43:52.234Z,29.61
2018-05-09T14:46:19.735Z,29.49
2018-05-09T14:51:24.958Z,30.20
2018-05-09T14:53:52.435Z,30.38
2018-05-09T14:56:19.920Z,30.41
2018-05-09T14:58:57.036Z,30.51
2018-05-09T15:01:24.542Z,30.55
2018-05-09T15:03:52.013Z,30.92
2018-05-09T15:06:19.561Z,31.22
2018-05-09T15:08:57.046Z,30.11
2018-05-09T15:11:24.589Z,28.62
2018-05-09T15:13:52.065Z,27.93
2018-05-09T15:16:26.549Z,27.97
2018-05-09T15:18:54.066Z,27.02
2018-05-09T15:21:22.183Z,27.66
2018-05-09T15:23:49.686Z,27.82
2018-05-09T15:26:27.563Z,27.75
2018-05-09T15:29:04.702Z,27.60
2018-05-09T15:31:32.206Z,27.89
2018-05-09T15:33:59.771Z,27.96
2018-05-09T15:36:27.224Z,28.15
2018-05-09T15:39:05.450Z,28.48
2018-05-09T15:44:10.613Z,28.78
2018-05-09T15:46:38.331Z,28.78
2018-05-09T15:49:05.839Z,28.51
2018-05-09T15:51:44.418Z,28.19
2018-05-09T15:54:11.980Z,27.78
2018-05-09T15:56:40.443Z,27.45
2018-05-09T15:59:07.942Z,27.43
2018-05-09T16:01:43.618Z,27.02
2018-05-09T16:04:11.271Z,27.20
2018-05-09T16:06:39.062Z,27.32
2018-05-09T16:09:06.788Z,27.08
2018-05-09T16:11:34.340Z,26.68
2018-05-09T16:14:01.827Z,26.46
2018-05-09T16:16:35.204Z,25.97
2018-05-09T16:19:12.903Z,25.42
2018-05-09T16:24:17.904Z,24.87
2018-05-09T16:26:45.432Z,24.59
2018-05-09T16:29:13.176Z,24.37
2018-05-09T16:31:50.414Z,24.18
2018-05-09T16:34:18.052Z,24.11
2018-05-09T16:36:45.852Z,24.18
2018-05-09T16:39:13.619Z,24.11
2018-05-09T16:41:51.506Z,23.90
2018-05-09T16:46:56.222Z,23.68
2018-05-09T16:49:23.743Z,23.58
2018-05-09T16:51:51.237Z,23.51
2018-05-09T16:56:55.588Z,23.50
2018-05-09T16:59:23.152Z,23.35
2018-05-09T17:01:50.681Z,23.36
2018-05-09T17:06:51.076Z,23.30
2018-05-09T17:09:18.586Z,23.24
2018-05-09T17:11:46.130Z,23.11
2018-05-09T17:14:13.880Z,23.10
2018-05-09T17:16:41.614Z,23.08
2018-05-09T17:19:19.785Z,23.06
2018-05-09T17:22:04.685Z,22.98
2018-05-09T17:24:38.068Z,22.91
2018-05-09T17:27:05.567Z,22.90
2018-05-09T17:29:33.123Z,22.85
2018-05-09T17:32:00.713Z,22.73
2018-05-09T17:34:38.237Z,22.63
2018-05-09T17:39:42.746Z,22.44
2018-05-09T17:42:10.262Z,22.34
2018-05-09T17:44:37.831Z,22.31
2018-05-09T17:49:43.370Z,22.19
2018-05-09T17:52:10.989Z,22.12
2018-05-09T17:54:38.509Z,22.05
2018-05-09T17:57:16.217Z,21.92
2018-05-09T17:59:53.694Z,21.84
2018-05-09T18:02:21.548Z,21.80
2018-05-09T18:04:49.254Z,21.73
2018-05-09T18:07:17.556Z,21.68
2018-05-09T18:09:48.965Z,21.63
2018-05-09T18:12:16.451Z,21.58
2018-05-09T18:14:45.431Z,21.56
2018-05-09T18:19:49.774Z,21.47
2018-05-09T18:22:17.293Z,21.41
2018-05-09T18:24:44.787Z,21.35
2018-05-09T18:29:49.160Z,21.18
2018-05-09T18:32:16.673Z,21.09
2018-05-09T18:34:44.157Z,21.04
2018-05-09T18:39:49.370Z,20.92
2018-05-09T18:42:16.806Z,20.84
2018-05-09T18:44:44.333Z,20.77
2018-05-09T18:47:21.654Z,20.69
2018-05-09T18:49:49.189Z,20.58
2018-05-09T18:52:16.678Z,20.50
2018-05-09T18:54:44.192Z,20.42
2018-05-09T18:57:21.558Z,20.34
2018-05-09T18:59:49.169Z,20.27
2018-05-09T19:02:16.681Z,20.18
2018-05-09T19:04:44.154Z,20.09
2018-05-09T19:07:21.837Z,20.02
2018-05-09T19:09:57.761Z,19.95
2018-05-09T19:12:25.275Z,19.89
2018-05-09T19:14:52.820Z,19.85
2018-05-09T19:17:30.479Z,19.77
2018-05-09T19:19:57.900Z,19.69
2018-05-09T19:22:25.471Z,19.63
2018-05-09T19:27:49.879Z,19.47
2018-05-09T19:30:19.739Z,19.40
2018-05-09T19:32:47.608Z,19.34
2018-05-09T19:35:21.630Z,19.26
2018-05-09T19:37:53.017Z,19.20
2018-05-09T19:40:20.844Z,19.19
2018-05-09T19:42:49.232Z,19.15
2018-05-09T19:45:24.463Z,19.09
2018-05-09T19:48:05.011Z,19.03
2018-05-09T19:50:32.688Z,18.94
2018-05-09T19:53:01.379Z,18.86
2018-05-09T19:55:30.931Z,18.74
2018-05-09T19:58:00.225Z,18.64
2018-05-09T20:00:30.420Z,18.58
2018-05-09T20:03:00.765Z,18.54
2018-05-09T20:05:28.619Z,18.48
2018-05-09T20:07:57.939Z,18.42
2018-05-09T20:10:25.788Z,18.41
2018-05-09T20:12:53.728Z,18.39
2018-05-09T20:15:23.190Z,18.37
2018-05-09T20:17:51.038Z,18.36
2018-05-09T20:20:18.805Z,18.37
2018-05-09T20:22:49.177Z,18.37
2018-05-09T20:25:22.561Z,18.36
2018-05-09T20:27:54.357Z,18.34
2018-05-09T20:30:27.791Z,18.32
2018-05-09T20:32:55.503Z,18.30
2018-05-09T20:35:23.229Z,18.24
2018-05-09T20:37:53.837Z,18.16
2018-05-09T20:40:21.528Z,17.99
2018-05-09T20:42:49.293Z,17.84
2018-05-09T20:45:18.703Z,17.75
2018-05-09T20:47:46.487Z,17.74
2018-05-09T20:50:14.341Z,17.72
2018-05-09T20:52:42.124Z,17.71
2018-05-09T20:55:28.560Z,17.65
2018-05-09T20:57:56.581Z,17.57
2018-05-09T21:00:24.455Z,17.41
2018-05-09T21:02:52.177Z,17.26
2018-05-09T21:05:21.532Z,17.20
2018-05-09T21:07:57.782Z,17.16
2018-05-09T21:10:33.288Z,17.13
2018-05-09T21:13:01.714Z,17.11
2018-05-09T21:15:29.510Z,17.08
2018-05-09T21:17:57.407Z,17.06
2018-05-09T21:20:25.017Z,17.05
2018-05-09T21:22:54.510Z,17.03
2018-05-09T21:25:22.197Z,16.99
2018-05-09T21:27:50.881Z,16.96
2018-05-09T21:32:53.274Z,16.75
2018-05-09T21:35:21.872Z,16.68
2018-05-09T21:37:50.808Z,16.60
2018-05-09T21:42:50.999Z,16.43
2018-05-09T21:45:18.770Z,16.36
2018-05-09T21:47:48.153Z,16.26
2018-05-09T21:50:15.874Z,16.21
2018-05-09T21:52:45.325Z,16.20
2018-05-09T21:55:18.831Z,16.19
2018-05-09T21:57:46.631Z,16.17
2018-05-09T22:00:14.589Z,16.16
2018-05-09T22:02:42.348Z,16.12
2018-05-09T22:05:10.145Z,16.10
2018-05-09T22:07:38.536Z,16.03
2018-05-09T22:10:06.296Z,15.98
2018-05-09T22:12:34.051Z,15.99
2018-05-09T22:15:03.542Z,15.94
2018-05-09T22:17:31.237Z,15.82
2018-05-09T22:19:59.047Z,15.71
2018-05-09T22:22:28.541Z,15.66
2018-05-09T22:24:56.283Z,15.63
2018-05-09T22:27:26.017Z,15.59
2018-05-09T22:29:56.329Z,15.62
2018-05-09T22:32:25.509Z,15.69
2018-05-09T22:34:55.098Z,15.77
2018-05-09T22:37:27.279Z,15.82
2018-05-09T22:39:55.827Z,15.86
2018-05-09T22:42:23.641Z,15.90
2018-05-09T22:44:51.229Z,15.91
2018-05-09T22:47:20.620Z,15.81
2018-05-09T22:49:49.209Z,15.77
2018-05-09T22:52:19.569Z,15.71
2018-05-09T22:54:49.074Z,15.69
2018-05-09T22:57:16.705Z,15.67
2018-05-09T22:59:47.319Z,15.52
2018-05-09T23:02:22.541Z,15.31
2018-05-09T23:04:50.340Z,15.21
2018-05-09T23:07:18.111Z,15.19
2018-05-09T23:09:47.489Z,15.17
2018-05-09T23:12:16.006Z,15.09
2018-05-09T23:14:45.381Z,15.06
2018-05-09T23:17:13.112Z,14.88
2018-05-09T23:19:40.843Z,14.72
2018-05-09T23:22:08.543Z,14.72
2018-05-09T23:24:38.074Z,14.68
2018-05-09T23:27:05.991Z,14.66
2018-05-09T23:29:35.335Z,14.64
2018-05-09T23:32:03.270Z,14.55
2018-05-09T23:34:30.940Z,14.54
2018-05-09T23:36:58.805Z,14.63
2018-05-09T23:39:28.273Z,14.71
2018-05-09T23:41:58.947Z,14.73
2018-05-09T23:44:26.758Z,14.76
2018-05-09T23:46:54.586Z,14.82
2018-05-09T23:49:26.105Z,14.83
2018-05-09T23:51:53.715Z,14.80
2018-05-09T23:54:23.177Z,14.78
2018-05-09T23:56:53.529Z,14.79
2018-05-09T23:59:21.499Z,14.80
